createdAt,value
2022-07-25T00:01:42.684Z,1.50
2022-07-25T00:04:11.063Z,1.80
2022-07-25T00:06:39.443Z,1.70
2022-07-25T00:09:06.487Z,1.48
2022-07-25T00:11:33.642Z,1.70
2022-07-25T00:14:00.565Z,1.70
2022-07-25T00:16:27.172Z,1.40
2022-07-25T00:18:53.712Z,2.03
2022-07-25T00:21:20.445Z,1.92
2022-07-25T00:23:47.039Z,1.60
2022-07-25T00:26:14.485Z,1.77
2022-07-25T00:28:41.362Z,1.85
2022-07-25T00:31:07.953Z,1.90
2022-07-25T00:33:34.620Z,1.83
2022-07-25T00:36:01.294Z,1.52
2022-07-25T00:38:27.886Z,1.58
2022-07-25T00:40:55.696Z,1.67
2022-07-25T00:43:22.754Z,1.40
2022-07-25T00:45:49.325Z,1.73
2022-07-25T00:48:15.818Z,1.73
2022-07-25T00:50:43.113Z,1.60
2022-07-25T00:53:09.793Z,1.90
2022-07-25T00:55:36.937Z,1.55
2022-07-25T00:58:03.817Z,1.80
2022-07-25T01:00:30.437Z,1.73
2022-07-25T01:02:57.535Z,1.42
2022-07-25T01:05:24.395Z,1.70
2022-07-25T01:07:52.120Z,1.40
2022-07-25T01:10:18.789Z,1.60
2022-07-25T01:12:52.658Z,1.33
2022-07-25T01:15:20.807Z,1.70
2022-07-25T01:17:47.404Z,1.70
2022-07-25T01:20:16.322Z,1.60
2022-07-25T01:22:43.550Z,1.83
2022-07-25T01:25:11.944Z,1.88
2022-07-25T01:27:39.101Z,1.75
2022-07-25T01:30:08.474Z,1.75
2022-07-25T01:32:36.145Z,1.20
2022-07-25T01:35:04.797Z,1.80
2022-07-25T01:37:31.380Z,1.58
2022-07-25T01:39:57.899Z,1.65
2022-07-25T01:42:24.464Z,1.50
2022-07-25T01:44:51.183Z,1.75
2022-07-25T01:47:17.801Z,1.98
2022-07-25T01:49:44.828Z,1.60
2022-07-25T01:52:12.322Z,1.30
2022-07-25T01:54:39.549Z,1.38
2022-07-25T01:57:06.410Z,1.45
2022-07-25T01:59:33.249Z,1.45
2022-07-25T02:01:59.783Z,1.55
2022-07-25T02:04:26.347Z,1.70
2022-07-25T02:06:52.902Z,1.73
2022-07-25T02:09:19.450Z,1.65
2022-07-25T02:11:46.097Z,1.40
2022-07-25T02:14:12.649Z,1.52
2022-07-25T02:16:39.318Z,1.75
2022-07-25T02:19:06.026Z,2.00
2022-07-25T02:21:32.821Z,1.92
2022-07-25T02:23:59.521Z,1.40
2022-07-25T02:26:26.066Z,1.40
2022-07-25T02:28:52.650Z,1.77
2022-07-25T02:31:19.746Z,1.70
2022-07-25T02:33:46.365Z,1.80
2022-07-25T02:36:13.089Z,1.45
2022-07-25T02:38:39.591Z,1.70
2022-07-25T02:41:06.288Z,1.33
2022-07-25T02:43:32.983Z,1.60
2022-07-25T02:45:59.812Z,1.70
2022-07-25T02:48:26.572Z,1.73
2022-07-25T02:50:53.261Z,1.88
2022-07-25T02:53:34.246Z,1.83
2022-07-25T02:56:06.512Z,1.90
2022-07-25T02:58:33.205Z,2.00
2022-07-25T03:00:59.756Z,1.55
2022-07-25T03:03:26.301Z,1.85
2022-07-25T03:05:53.412Z,1.55
2022-07-25T03:08:19.876Z,1.92
2022-07-25T03:10:46.463Z,1.60
2022-07-25T03:13:12.984Z,1.80
2022-07-25T03:15:39.488Z,1.80
2022-07-25T03:18:06.087Z,1.67
2022-07-25T03:20:32.855Z,1.80
2022-07-25T03:22:59.377Z,1.40
2022-07-25T03:25:25.991Z,1.35
2022-07-25T03:27:52.509Z,1.70
2022-07-25T03:30:19.030Z,1.58
2022-07-25T03:32:45.664Z,1.65
2022-07-25T03:35:12.168Z,1.77
2022-07-25T03:37:38.699Z,1.60
2022-07-25T03:40:06.218Z,1.40
2022-07-25T03:42:35.302Z,1.73
2022-07-25T03:45:02.224Z,2.08
2022-07-25T03:47:28.737Z,1.83
2022-07-25T03:49:55.353Z,2.33
2022-07-25T03:52:21.839Z,1.95
2022-07-25T03:54:48.304Z,1.90
2022-07-25T03:57:14.805Z,1.80
2022-07-25T03:59:41.288Z,1.80
2022-07-25T04:02:07.860Z,1.63
2022-07-25T04:04:34.780Z,2.20
2022-07-25T04:07:01.309Z,1.77
2022-07-25T04:09:27.894Z,2.15
2022-07-25T04:11:59.826Z,1.80
2022-07-25T04:14:26.355Z,1.70
2022-07-25T04:16:52.955Z,2.03
2022-07-25T04:19:19.886Z,1.75
2022-07-25T04:22:14.612Z,1.70
2022-07-25T04:24:41.189Z,1.63
2022-07-25T04:27:07.731Z,2.00
2022-07-25T04:29:34.222Z,1.73
2022-07-25T04:32:00.868Z,1.70
2022-07-25T04:34:27.438Z,1.83
2022-07-25T04:36:53.943Z,1.88
2022-07-25T04:39:20.529Z,1.52
2022-07-25T04:41:47.143Z,1.67
2022-07-25T04:44:13.621Z,1.58
2022-07-25T04:46:40.680Z,2.35
2022-07-25T04:49:07.270Z,1.67
2022-07-25T04:51:33.944Z,1.80
2022-07-25T04:54:00.822Z,1.77
2022-07-25T04:56:27.346Z,1.80
2022-07-25T04:58:53.820Z,1.67
2022-07-25T05:01:20.475Z,1.75
2022-07-25T05:03:50.414Z,1.88
2022-07-25T05:06:18.910Z,1.70
2022-07-25T05:08:45.412Z,1.50
2022-07-25T05:11:11.956Z,1.98
2022-07-25T05:13:38.463Z,1.80
2022-07-25T05:16:05.475Z,1.55
2022-07-25T05:18:34.021Z,1.80
2022-07-25T05:21:00.588Z,1.70
2022-07-25T05:23:27.085Z,1.90
2022-07-25T05:25:53.578Z,2.05
2022-07-25T05:28:20.061Z,1.95
2022-07-25T05:30:46.697Z,1.92
2022-07-25T05:33:13.166Z,1.77
2022-07-25T05:35:39.736Z,1.83
2022-07-25T05:38:06.528Z,1.90
2022-07-25T05:40:33.053Z,2.10
2022-07-25T05:43:03.179Z,1.88
2022-07-25T05:45:30.681Z,1.98
2022-07-25T05:47:57.229Z,2.17
2022-07-25T05:50:24.037Z,1.83
2022-07-25T05:52:50.572Z,1.88
2022-07-25T05:55:17.569Z,1.85
2022-07-25T05:57:44.213Z,1.83
2022-07-25T06:00:11.373Z,2.20
2022-07-25T06:02:38.179Z,1.98
2022-07-25T06:05:05.162Z,2.17
2022-07-25T06:07:31.644Z,2.13
2022-07-25T06:09:58.112Z,2.20
2022-07-25T06:12:24.687Z,2.33
2022-07-25T06:14:51.408Z,2.05
2022-07-25T06:17:18.159Z,2.00
2022-07-25T06:19:44.665Z,2.28
2022-07-25T06:22:11.496Z,2.20
2022-07-25T06:24:38.640Z,2.13
2022-07-25T06:27:07.193Z,2.30
2022-07-25T06:29:33.980Z,1.92
2022-07-25T06:32:00.507Z,2.35
2022-07-25T06:34:28.913Z,2.10
2022-07-25T06:36:57.423Z,2.50
2022-07-25T06:39:24.666Z,2.45
2022-07-25T06:41:51.328Z,1.92
2022-07-25T06:44:17.851Z,2.10
2022-07-25T06:46:44.447Z,2.00
2022-07-25T06:49:11.100Z,2.33
2022-07-25T06:51:37.830Z,2.20
2022-07-25T06:54:04.632Z,2.13
2022-07-25T06:56:32.924Z,2.47
2022-07-25T06:58:59.909Z,1.85
2022-07-25T07:01:27.151Z,2.60
2022-07-25T07:03:53.812Z,2.67
2022-07-25T07:06:20.408Z,2.30
2022-07-25T07:08:46.908Z,4.63
2022-07-25T07:11:15.261Z,2.63
2022-07-25T07:13:41.896Z,3.30
2022-07-25T07:16:08.884Z,2.53
2022-07-25T07:18:35.474Z,2.63
2022-07-25T07:21:02.092Z,2.65
2022-07-25T07:23:28.986Z,2.67
2022-07-25T07:25:56.112Z,2.78
2022-07-25T07:28:22.818Z,2.47
2022-07-25T07:33:38.076Z,2.42
2022-07-25T07:36:04.862Z,3.10
2022-07-25T07:38:31.322Z,2.90
2022-07-25T07:40:57.958Z,2.80
2022-07-25T07:43:29.685Z,2.90
2022-07-25T07:46:00.764Z,3.15
2022-07-25T07:48:29.012Z,2.92
2022-07-25T07:50:55.751Z,3.40
2022-07-25T07:53:22.239Z,3.67
2022-07-25T07:55:55.078Z,3.47
2022-07-25T07:58:21.904Z,3.08
2022-07-25T08:00:50.971Z,3.08
2022-07-25T08:03:20.693Z,2.90
2022-07-25T08:05:49.115Z,3.33
2022-07-25T08:08:16.711Z,3.00
2022-07-25T08:10:45.377Z,3.40
2022-07-25T08:13:16.057Z,3.08
2022-07-25T08:15:44.382Z,3.42
2022-07-25T08:18:17.827Z,3.10
2022-07-25T08:20:45.852Z,3.88
2022-07-25T08:23:12.684Z,3.47
2022-07-25T08:25:40.591Z,3.47
2022-07-25T08:28:07.710Z,3.50
2022-07-25T08:30:36.211Z,3.40
2022-07-25T08:33:05.009Z,3.20
2022-07-25T08:35:32.503Z,3.90
2022-07-25T08:38:00.528Z,3.55
2022-07-25T08:40:29.736Z,3.60
2022-07-25T08:42:56.699Z,2.88
2022-07-25T08:45:23.342Z,3.58
2022-07-25T08:47:52.212Z,4.07
2022-07-25T08:50:21.877Z,3.33
2022-07-25T08:52:49.890Z,3.63
2022-07-25T08:55:22.907Z,3.25
2022-07-25T08:57:52.719Z,3.90
2022-07-25T09:00:22.311Z,3.33
2022-07-25T09:03:00.819Z,3.45
2022-07-25T09:05:30.271Z,3.92
2022-07-25T09:07:57.981Z,3.65
2022-07-25T09:10:27.450Z,3.90
2022-07-25T09:12:59.784Z,3.88
2022-07-25T09:15:32.352Z,3.80
2022-07-25T09:18:01.449Z,3.97
2022-07-25T09:20:50.032Z,4.00
2022-07-25T09:23:33.341Z,3.88
2022-07-25T09:26:14.633Z,3.92
2022-07-25T09:28:44.010Z,3.75
2022-07-25T09:31:12.054Z,3.92
2022-07-25T09:33:47.676Z,3.90
2022-07-25T09:36:14.965Z,3.33
2022-07-25T09:39:01.066Z,3.60
2022-07-25T09:41:38.493Z,3.45
2022-07-25T09:44:16.701Z,3.92
2022-07-25T09:46:43.725Z,3.58
2022-07-25T09:49:14.353Z,4.00
2022-07-25T09:51:42.293Z,3.75
2022-07-25T09:54:09.599Z,4.40
2022-07-25T09:56:36.536Z,4.10
2022-07-25T09:59:04.977Z,3.95
2022-07-25T10:01:38.167Z,3.88
2022-07-25T10:04:47.630Z,4.10
2022-07-25T10:07:16.826Z,3.70
2022-07-25T10:09:48.940Z,4.80
2022-07-25T10:12:20.237Z,3.83
2022-07-25T10:15:05.577Z,4.68
2022-07-25T10:17:32.586Z,4.07
2022-07-25T10:20:01.230Z,3.95
2022-07-25T10:22:58.453Z,3.63
2022-07-25T10:25:25.539Z,3.97
2022-07-25T10:28:03.722Z,3.88
2022-07-25T10:30:38.813Z,4.22
2022-07-25T10:33:17.521Z,3.75
2022-07-25T10:35:44.823Z,3.92
2022-07-25T10:38:11.497Z,4.32
2022-07-25T10:40:43.300Z,4.05
2022-07-25T10:43:13.387Z,4.13
2022-07-25T10:45:49.799Z,3.72
2022-07-25T10:48:33.252Z,3.70
2022-07-25T10:51:05.903Z,3.78
2022-07-25T10:53:44.461Z,3.47
2022-07-25T10:56:19.858Z,3.85
2022-07-25T10:58:52.273Z,3.50
2022-07-25T11:01:31.110Z,3.90
2022-07-25T11:04:01.417Z,3.78
2022-07-25T11:06:40.814Z,3.60
2022-07-25T11:09:26.655Z,3.70
2022-07-25T11:11:57.362Z,3.55
2022-07-25T11:14:41.826Z,4.05
2022-07-25T11:17:20.796Z,3.58
2022-07-25T11:20:00.256Z,3.97
2022-07-25T11:22:28.441Z,3.55
2022-07-25T11:24:57.103Z,3.47
2022-07-25T11:27:32.644Z,3.72
2022-07-25T11:30:16.387Z,3.50
2022-07-25T11:32:55.994Z,3.55
2022-07-25T11:35:27.104Z,3.33
2022-07-25T11:37:54.214Z,3.17
2022-07-25T11:40:22.602Z,3.25
2022-07-25T11:42:49.103Z,3.75
2022-07-25T11:45:24.323Z,3.28
2022-07-25T11:48:13.512Z,3.50
2022-07-25T11:50:42.940Z,3.15
2022-07-25T11:53:15.141Z,3.45
2022-07-25T11:55:43.227Z,2.92
2022-07-25T11:58:11.550Z,3.30
2022-07-25T12:00:49.024Z,3.30
2022-07-25T12:03:20.518Z,3.45
2022-07-25T12:05:48.281Z,3.35
2022-07-25T12:08:17.253Z,3.15
2022-07-25T12:10:47.247Z,3.40
2022-07-25T12:13:30.674Z,3.30
2022-07-25T12:16:00.014Z,3.20
2022-07-25T12:18:27.763Z,3.78
2022-07-25T12:20:54.360Z,3.45
2022-07-25T12:23:22.094Z,3.53
2022-07-25T12:25:49.213Z,3.13
2022-07-25T12:28:16.032Z,3.47
2022-07-25T12:30:43.813Z,3.70
2022-07-25T12:33:11.248Z,3.22
2022-07-25T12:35:38.386Z,3.50
2022-07-25T12:38:05.349Z,3.80
2022-07-25T12:40:32.076Z,3.47
2022-07-25T12:42:59.387Z,3.35
2022-07-25T12:45:26.007Z,3.53
2022-07-25T12:47:52.741Z,3.70
2022-07-25T12:50:19.592Z,3.28
2022-07-25T12:52:46.987Z,3.50
2022-07-25T12:55:18.515Z,3.47
2022-07-25T12:57:46.378Z,3.40
2022-07-25T13:00:15.597Z,4.38
2022-07-25T13:02:42.272Z,3.60
2022-07-25T13:05:09.245Z,3.55
2022-07-25T13:07:36.488Z,3.47
2022-07-25T13:10:04.279Z,3.05
2022-07-25T13:12:31.106Z,3.60
2022-07-25T13:14:57.758Z,3.53
2022-07-25T13:17:27.566Z,3.30
2022-07-25T13:19:55.814Z,3.45
2022-07-25T13:22:22.972Z,3.53
2022-07-25T13:24:49.803Z,3.63
2022-07-25T13:27:18.873Z,3.65
2022-07-25T13:29:45.607Z,3.65
2022-07-25T13:32:12.267Z,4.18
2022-07-25T13:34:39.348Z,3.60
2022-07-25T13:37:06.264Z,3.75
2022-07-25T13:39:33.680Z,3.80
2022-07-25T13:42:00.254Z,3.63
2022-07-25T13:44:26.726Z,3.50
2022-07-25T13:46:53.302Z,3.75
2022-07-25T13:49:20.002Z,3.65
2022-07-25T13:51:47.596Z,3.60
2022-07-25T13:54:14.275Z,3.55
2022-07-25T13:56:42.451Z,3.85
2022-07-25T13:59:09.627Z,3.63
2022-07-25T14:01:36.943Z,3.30
2022-07-25T14:04:03.669Z,3.97
2022-07-25T14:06:30.236Z,3.28
2022-07-25T14:08:56.777Z,3.53
2022-07-25T14:11:28.591Z,4.15
2022-07-25T14:13:57.547Z,3.75
2022-07-25T14:16:24.315Z,3.78
2022-07-25T14:18:51.037Z,3.88
2022-07-25T14:21:18.722Z,3.80
2022-07-25T14:23:45.353Z,3.20
2022-07-25T14:26:13.059Z,3.17
2022-07-25T14:28:39.582Z,3.22
2022-07-25T14:31:06.274Z,3.38
2022-07-25T14:33:37.788Z,3.40
2022-07-25T14:36:04.489Z,3.50
2022-07-25T14:38:31.136Z,3.63
2022-07-25T14:40:57.607Z,3.47
2022-07-25T14:43:24.149Z,3.70
2022-07-25T14:45:50.661Z,3.70
2022-07-25T14:48:17.278Z,3.55
2022-07-25T14:50:43.811Z,3.55
2022-07-25T14:53:10.651Z,3.47
2022-07-25T14:55:37.542Z,3.78
2022-07-25T14:58:04.315Z,3.42
2022-07-25T15:00:31.693Z,3.72
2022-07-25T15:02:58.339Z,3.70
2022-07-25T15:05:25.131Z,3.65
2022-07-25T15:07:51.669Z,4.15
2022-07-25T15:10:18.314Z,3.47
2022-07-25T15:12:44.857Z,3.60
2022-07-25T15:15:11.523Z,3.47
2022-07-25T15:17:38.776Z,3.38
2022-07-25T15:20:05.847Z,3.55
2022-07-25T15:22:32.422Z,3.47
2022-07-25T15:25:27.526Z,3.45
2022-07-25T15:27:45.760Z,3.53
2022-07-25T15:30:12.450Z,3.50
2022-07-25T15:32:40.120Z,3.30
2022-07-25T15:35:07.692Z,3.80
2022-07-25T15:37:34.263Z,3.95
2022-07-25T15:40:00.931Z,4.10
2022-07-25T15:42:29.426Z,3.90
2022-07-25T15:45:29.821Z,3.72
2022-07-25T15:47:45.159Z,4.00
2022-07-25T15:50:15.443Z,3.40
2022-07-25T15:52:41.967Z,3.38
2022-07-25T15:55:09.308Z,3.60
2022-07-25T15:57:36.098Z,3.80
2022-07-25T16:00:04.858Z,3.83
2022-07-25T16:02:35.176Z,3.70
2022-07-25T16:05:02.508Z,3.90
2022-07-25T16:07:29.101Z,3.55
2022-07-25T16:09:56.679Z,4.18
2022-07-25T16:12:28.367Z,4.15
2022-07-25T16:14:55.303Z,3.83
2022-07-25T16:17:22.257Z,3.72
2022-07-25T16:19:48.839Z,4.28
2022-07-25T16:22:15.361Z,4.00
2022-07-25T16:24:41.903Z,4.40
2022-07-25T16:27:09.385Z,4.32
2022-07-25T16:29:35.911Z,4.60
2022-07-25T16:32:03.354Z,4.40
2022-07-25T16:34:29.880Z,3.97
2022-07-25T16:36:56.473Z,4.60
2022-07-25T16:39:23.214Z,4.40
2022-07-25T16:41:50.319Z,4.43
2022-07-25T16:44:17.124Z,4.35
2022-07-25T16:46:44.162Z,4.38
2022-07-25T16:49:13.416Z,3.97
2022-07-25T16:51:40.174Z,4.45
2022-07-25T16:54:06.799Z,3.85
2022-07-25T16:56:33.781Z,4.97
2022-07-25T16:59:00.915Z,4.00
2022-07-25T17:01:27.552Z,4.15
2022-07-25T17:03:54.566Z,5.30
2022-07-25T17:06:21.140Z,5.38
2022-07-25T17:08:47.739Z,4.80
2022-07-25T17:11:14.361Z,5.82
2022-07-25T17:13:40.888Z,5.10
2022-07-25T17:16:07.831Z,5.43
2022-07-25T17:18:36.035Z,5.20
2022-07-25T17:21:02.809Z,5.13
2022-07-25T17:23:29.489Z,5.53
2022-07-25T17:25:56.210Z,5.30
2022-07-25T17:28:22.808Z,5.05
2022-07-25T17:30:49.577Z,4.78
2022-07-25T17:33:16.399Z,4.25
2022-07-25T17:35:42.942Z,4.55
2022-07-25T17:38:11.819Z,4.40
2022-07-25T17:40:41.122Z,4.57
2022-07-25T17:43:07.721Z,4.00
2022-07-25T17:45:34.455Z,4.18
2022-07-25T17:48:01.054Z,4.18
2022-07-25T17:50:29.619Z,3.75
2022-07-25T17:52:58.750Z,3.38
2022-07-25T17:55:26.195Z,3.88
2022-07-25T17:57:55.708Z,3.30
2022-07-25T18:00:23.302Z,3.40
2022-07-25T18:02:50.697Z,3.83
2022-07-25T18:05:17.912Z,3.50
2022-07-25T18:07:46.267Z,3.70
2022-07-25T18:10:13.336Z,3.20
2022-07-25T18:12:39.943Z,3.20
2022-07-25T18:15:07.430Z,3.17
2022-07-25T18:17:34.293Z,3.30
2022-07-25T18:20:01.293Z,3.63
2022-07-25T18:22:28.027Z,3.63
2022-07-25T18:24:54.544Z,3.00
2022-07-25T18:27:21.063Z,3.50
2022-07-25T18:29:47.634Z,2.67
2022-07-25T18:32:14.275Z,3.00
2022-07-25T18:34:40.814Z,3.25
2022-07-25T18:37:07.492Z,2.83
2022-07-25T18:39:35.092Z,3.17
2022-07-25T18:42:01.627Z,2.92
2022-07-25T18:44:28.194Z,3.33
2022-07-25T18:46:55.128Z,2.90
2022-07-25T18:49:22.877Z,3.08
2022-07-25T18:51:49.509Z,2.63
2022-07-25T18:54:19.085Z,2.78
2022-07-25T18:56:45.809Z,2.75
2022-07-25T18:59:12.451Z,2.90
2022-07-25T19:01:39.603Z,2.40
2022-07-25T19:04:06.753Z,2.53
2022-07-25T19:06:33.757Z,2.38
2022-07-25T19:09:00.271Z,2.45
2022-07-25T19:11:26.808Z,2.60
2022-07-25T19:13:53.571Z,2.35
2022-07-25T19:16:20.786Z,2.17
2022-07-25T19:18:47.833Z,2.50
2022-07-25T19:21:15.245Z,2.10
2022-07-25T19:23:43.788Z,2.35
2022-07-25T19:26:14.908Z,2.65
2022-07-25T19:28:41.537Z,2.40
2022-07-25T19:31:08.518Z,2.33
2022-07-25T19:33:36.231Z,2.63
2022-07-25T19:36:04.168Z,2.45
2022-07-25T19:38:30.936Z,2.53
2022-07-25T19:40:57.449Z,2.45
2022-07-25T19:43:23.994Z,2.28
2022-07-25T19:45:50.571Z,2.28
2022-07-25T19:48:17.908Z,2.40
2022-07-25T19:50:45.610Z,2.28
2022-07-25T19:53:12.462Z,2.35
2022-07-25T19:55:38.964Z,2.38
2022-07-25T19:58:08.314Z,2.28
2022-07-25T20:00:34.912Z,2.30
2022-07-25T20:03:01.535Z,2.60
2022-07-25T20:05:28.189Z,2.20
2022-07-25T20:07:54.690Z,1.77
2022-07-25T20:10:21.302Z,2.08
2022-07-25T20:12:48.133Z,2.20
2022-07-25T20:15:14.949Z,1.98
2022-07-25T20:17:41.836Z,2.10
2022-07-25T20:20:08.975Z,1.95
2022-07-25T20:22:38.356Z,2.13
2022-07-25T20:25:07.123Z,2.05
2022-07-25T20:27:34.514Z,1.83
2022-07-25T20:30:03.457Z,2.10
2022-07-25T20:32:30.600Z,2.10
2022-07-25T20:34:57.384Z,2.03
2022-07-25T20:37:23.963Z,2.05
2022-07-25T20:39:51.919Z,2.25
2022-07-25T20:42:18.505Z,1.90
2022-07-25T20:44:45.285Z,2.22
2022-07-25T20:47:14.710Z,1.98
2022-07-25T20:49:41.431Z,2.33
2022-07-25T20:52:09.027Z,2.05
2022-07-25T20:54:36.815Z,1.90
2022-07-25T20:57:03.983Z,2.30
2022-07-25T20:59:31.123Z,2.22
2022-07-25T21:01:58.006Z,2.22
2022-07-25T21:04:24.765Z,1.98
2022-07-25T21:06:51.465Z,1.80
2022-07-25T21:09:18.293Z,1.70
2022-07-25T21:11:44.914Z,1.80
2022-07-25T21:14:11.628Z,1.98
2022-07-25T21:16:38.198Z,2.15
2022-07-25T21:19:04.948Z,2.00
2022-07-25T21:21:31.999Z,2.25
2022-07-25T21:23:58.624Z,2.08
2022-07-25T21:26:25.125Z,2.20
2022-07-25T21:28:51.600Z,2.60
2022-07-25T21:31:18.553Z,2.15
2022-07-25T21:33:45.197Z,2.30
2022-07-25T21:36:11.892Z,2.50
2022-07-25T21:38:38.630Z,2.17
2022-07-25T21:41:06.941Z,1.98
2022-07-25T21:43:34.118Z,2.30
2022-07-25T21:46:00.721Z,2.47
2022-07-25T21:48:46.298Z,1.90
2022-07-25T21:51:18.851Z,2.13
2022-07-25T21:53:49.768Z,2.38
2022-07-25T21:56:16.662Z,2.35
2022-07-25T21:58:43.548Z,2.17
2022-07-25T22:01:10.168Z,1.60
2022-07-25T22:03:36.821Z,2.10
2022-07-25T22:06:03.565Z,1.92
2022-07-25T22:08:30.109Z,2.17
2022-07-25T22:10:57.749Z,2.63
2022-07-25T22:13:25.109Z,2.50
2022-07-25T22:15:51.918Z,2.75
2022-07-25T22:18:18.715Z,2.25
2022-07-25T22:20:45.849Z,2.05
2022-07-25T22:23:12.431Z,2.45
2022-07-25T22:25:39.209Z,2.40
2022-07-25T22:28:05.929Z,2.00
2022-07-25T22:30:35.957Z,2.13
2022-07-25T22:33:02.502Z,2.40
2022-07-25T22:35:29.158Z,2.35
2022-07-25T22:37:55.690Z,2.10
2022-07-25T22:40:22.430Z,2.15
2022-07-25T22:42:49.003Z,2.05
2022-07-25T22:45:15.609Z,1.98
2022-07-25T22:47:42.088Z,2.50
2022-07-25T22:50:09.561Z,2.50
2022-07-25T22:52:36.120Z,2.10
2022-07-25T22:55:03.232Z,2.05
2022-07-25T22:57:29.738Z,2.28
2022-07-25T23:00:07.741Z,2.13
2022-07-25T23:02:35.871Z,1.92
2022-07-25T23:05:02.538Z,2.45
2022-07-25T23:07:29.012Z,2.35
2022-07-25T23:09:55.530Z,2.10
2022-07-25T23:12:22.182Z,2.00
2022-07-25T23:14:48.687Z,2.13
2022-07-25T23:17:18.000Z,1.75
2022-07-25T23:19:45.522Z,1.90
2022-07-25T23:22:12.159Z,1.70
2022-07-25T23:24:38.787Z,1.70
2022-07-25T23:27:05.421Z,1.70
2022-07-25T23:29:31.929Z,1.60
2022-07-25T23:31:58.617Z,1.50
2022-07-25T23:34:25.199Z,1.73
2022-07-25T23:36:51.833Z,1.60
2022-07-25T23:39:18.695Z,1.45
2022-07-25T23:41:45.313Z,1.50
2022-07-25T23:44:12.284Z,1.35
2022-07-25T23:46:39.603Z,1.50
2022-07-25T23:49:07.329Z,1.70
2022-07-25T23:51:34.015Z,1.40
2022-07-25T23:54:00.836Z,1.40
2022-07-25T23:56:27.377Z,1.45
2022-07-25T23:58:54.077Z,1.20
